Loma Rica, California
Current Conditions -  °F | °C
As of 7:58 PM on Tuesday 21 Oct 2014 (Local Time) from KBAB Reporting Station
Clear Clear  
Wind Chill: 58°   Ceiling: Unl
Heat Index: 58°   Visibility: 10mi
Dew Point: 45°   Wind: 0mph
Humidity: 63%   Direction: NA
Pressure: 30"   Gusts: NA
Location:  39.1912°N, 121.489°W
Report Text: KBAB 220258Z AUTO 00000KT 10SM CLR 14/07 A3000 RMK AO2 SLP236 T01420072 53003 $
Loading
Personal Weather Stations






























Interactive Weather Map
Tropical Storm Tracking
New forecast layout! Learn more

10-Day Weather Forecast

Advertisements
Track Severe Weather on mobile